Terminal Aerodrome Forecast
Issued by NWS Shreveport, LA

Home | Current Version | Previous Version | Text Only | Print | Product List | Glossary On
Versions: 1 2 3 4 5 6 7 8 9 10 11 12 13
971
FTUS44 KSHV 110545
TAFMLU
TAF
KMLU 110545Z 1106/1206 VRB03KT P6SM OVC050
     FM111200 16007KT P6SM OVC040
     FM111800 18012G18KT P6SM SCT025 OVC035
     FM120000 19012KT P6SM VCSH BKN015 OVC025=

USA.gov is the U.S. government's official web portal to all federal, state and local government web resources and services.